Powell, Texas
Current Conditions -  °F | °C
As of 6:53 PM on Wednesday 22 Oct 2014 (Local Time) from KCRS Reporting Station
Clear Clear  
Wind Chill: 22°   Ceiling: Unl
Heat Index: 22°   Visibility: 10mi
Dew Point: 12°   Wind: 3mph
Humidity: 53%   Direction: 90°E
Pressure: 30.1"   Gusts: NA
Location:  32.12°N, 96.32°W
Report Text: KCRS 222353Z AUTO 09003KT 10SM CLR 22/12 A3010 RMK AO2 SLP188 T02220122 10272 20222 53003
Loading
Personal Weather Stations






























Interactive Weather Map
Tropical Storm Tracking
New forecast layout! Learn more

10-Day Weather Forecast

Advertisements
Track Severe Weather on mobile